Terminal Aerodrome Forecast
Issued by NWS

Home | Current Version | Previous Version | Text Only | Print | Product List | Glossary On
Versions: 1 2 3 4 5 6 7 8 9 10 11 12 13 14 15 16 17 18 19 20
765
FTUS42 KJAX 261120
TAFVQQ
TAF
KVQQ 261120Z 2612/2712 23004KT P6SM SCT040 SCT250
     FM261900 17010KT P6SM SCT050 SCT250
     FM270300 19004KT P6SM SCT250=

USA.gov is the U.S. government's official web portal to all federal, state and local government web resources and services.